sensor_id;sensor_type;location;lat;lon;timestamp;temperature;humidity
35463;DHT22;21578;47.892;9.970;2024-03-23T00:55:55;9.20;96.60
35463;DHT22;21578;47.892;9.970;2024-03-23T01:00:42;9.10;96.60
35463;DHT22;21578;47.892;9.970;2024-03-23T01:05:29;9.10;96.60
35463;DHT22;21578;47.892;9.970;2024-03-23T01:10:16;9.10;96.60
35463;DHT22;21578;47.892;9.970;2024-03-23T01:15:04;9.10;96.60
35463;DHT22;21578;47.892;9.970;2024-03-23T01:19:51;9.00;96.60
35463;DHT22;21578;47.892;9.970;2024-03-23T01:24:38;8.90;96.60
35463;DHT22;21578;47.892;9.970;2024-03-23T01:29:25;8.90;96.60
35463;DHT22;21578;47.892;9.970;2024-03-23T01:34:13;8.80;96.60
35463;DHT22;21578;47.892;9.970;2024-03-23T01:38:59;8.80;96.60
35463;DHT22;21578;47.892;9.970;2024-03-23T01:43:46;8.90;96.60
35463;DHT22;21578;47.892;9.970;2024-03-23T01:48:33;8.80;96.60
35463;DHT22;21578;47.892;9.970;2024-03-23T01:53:22;8.80;96.60
35463;DHT22;21578;47.892;9.970;2024-03-23T01:58:08;8.70;96.60
35463;DHT22;21578;47.892;9.970;2024-03-23T02:02:55;8.70;96.60
35463;DHT22;21578;47.892;9.970;2024-03-23T02:07:42;8.60;96.60
35463;DHT22;21578;47.892;9.970;2024-03-23T02:12:30;8.50;96.60
35463;DHT22;21578;47.892;9.970;2024-03-23T02:17:17;8.50;96.60
35463;DHT22;21578;47.892;9.970;2024-03-23T02:22:04;8.50;96.60
35463;DHT22;21578;47.892;9.970;2024-03-23T02:26:52;8.50;96.60
35463;DHT22;21578;47.892;9.970;2024-03-23T02:31:39;8.60;96.60
35463;DHT22;21578;47.892;9.970;2024-03-23T02:36:26;8.70;96.60
35463;DHT22;21578;47.892;9.970;2024-03-23T02:41:13;8.70;96.60
35463;DHT22;21578;47.892;9.970;2024-03-23T02:46:01;8.80;96.60
35463;DHT22;21578;47.892;9.970;2024-03-23T02:50:49;8.90;96.60
35463;DHT22;21578;47.892;9.970;2024-03-23T02:55:36;9.10;96.60
35463;DHT22;21578;47.892;9.970;2024-03-23T03:00:23;9.10;96.60
35463;DHT22;21578;47.892;9.970;2024-03-23T03:05:11;9.10;96.60
35463;DHT22;21578;47.892;9.970;2024-03-23T03:09:59;9.00;96.40
35463;DHT22;21578;47.892;9.970;2024-03-23T03:14:46;8.90;96.40
35463;DHT22;21578;47.892;9.970;2024-03-23T03:19:34;8.90;96.10
35463;DHT22;21578;47.892;9.970;2024-03-23T03:24:22;9.00;95.60
35463;DHT22;21578;47.892;9.970;2024-03-23T03:29:08;9.00;95.40
35463;DHT22;21578;47.892;9.970;2024-03-23T03:33:55;9.00;95.10
35463;DHT22;21578;47.892;9.970;2024-03-23T03:38:42;8.90;94.70
35463;DHT22;21578;47.892;9.970;2024-03-23T03:43:30;8.90;94.50
35463;DHT22;21578;47.892;9.970;2024-03-23T03:48:17;8.80;94.70
35463;DHT22;21578;47.892;9.970;2024-03-23T03:53:04;8.70;94.90
35463;DHT22;21578;47.892;9.970;2024-03-23T03:57:51;8.70;94.60
35463;DHT22;21578;47.892;9.970;2024-03-23T04:02:39;8.70;94.50
35463;DHT22;21578;47.892;9.970;2024-03-23T04:07:25;8.70;94.90
35463;DHT22;21578;47.892;9.970;2024-03-23T04:12:12;8.80;94.70
35463;DHT22;21578;47.892;9.970;2024-03-23T04:16:59;8.90;94.70
35463;DHT22;21578;47.892;9.970;2024-03-23T04:21:47;8.80;94.50
35463;DHT22;21578;47.892;9.970;2024-03-23T04:26:40;8.70;95.30
35463;DHT22;21578;47.892;9.970;2024-03-23T04:31:27;8.70;96.50
35463;DHT22;21578;47.892;9.970;2024-03-23T04:36:14;8.80;96.20
35463;DHT22;21578;47.892;9.970;2024-03-23T04:41:02;8.80;96.20
35463;DHT22;21578;47.892;9.970;2024-03-23T04:45:49;8.80;96.60
35463;DHT22;21578;47.892;9.970;2024-03-23T04:50:35;8.80;96.60
35463;DHT22;21578;47.892;9.970;2024-03-23T04:55:22;8.80;96.60
35463;DHT22;21578;47.892;9.970;2024-03-23T05:00:12;8.90;96.60
35463;DHT22;21578;47.892;9.970;2024-03-23T05:05:03;8.90;96.60
35463;DHT22;21578;47.892;9.970;2024-03-23T05:09:52;9.00;96.60
35463;DHT22;21578;47.892;9.970;2024-03-23T05:14:39;8.90;96.50
35463;DHT22;21578;47.892;9.970;2024-03-23T05:19:27;8.90;96.00
35463;DHT22;21578;47.892;9.970;2024-03-23T05:24:14;8.80;95.30
35463;DHT22;21578;47.892;9.970;2024-03-23T05:29:01;8.70;94.90
35463;DHT22;21578;47.892;9.970;2024-03-23T05:33:47;8.60;94.90
35463;DHT22;21578;47.892;9.970;2024-03-23T05:38:35;8.60;94.80
35463;DHT22;21578;47.892;9.970;2024-03-23T05:43:22;8.70;95.30
35463;DHT22;21578;47.892;9.970;2024-03-23T05:48:09;8.70;95.80
35463;DHT22;21578;47.892;9.970;2024-03-23T05:52:56;8.80;95.50
35463;DHT22;21578;47.892;9.970;2024-03-23T05:57:44;8.90;95.50
35463;DHT22;21578;47.892;9.970;2024-03-23T06:02:30;9.10;95.60
35463;DHT22;21578;47.892;9.970;2024-03-23T06:07:17;9.20;95.00
35463;DHT22;21578;47.892;9.970;2024-03-23T06:12:04;9.30;94.70
35463;DHT22;21578;47.892;9.970;2024-03-23T06:16:52;9.30;94.20
35463;DHT22;21578;47.892;9.970;2024-03-23T06:21:43;9.60;92.90
35463;DHT22;21578;47.892;9.970;2024-03-23T06:26:30;9.60;94.70
35463;DHT22;21578;47.892;9.970;2024-03-23T06:31:16;9.20;96.60
35463;DHT22;21578;47.892;9.970;2024-03-23T06:36:05;8.90;96.60
35463;DHT22;21578;47.892;9.970;2024-03-23T06:40:52;8.80;96.60
35463;DHT22;21578;47.892;9.970;2024-03-23T06:45:39;8.70;96.60
35463;DHT22;21578;47.892;9.970;2024-03-23T06:50:25;8.80;96.60
35463;DHT22;21578;47.892;9.970;2024-03-23T06:55:15;8.90;96.60
35463;DHT22;21578;47.892;9.970;2024-03-23T07:00:02;8.90;96.60
35463;DHT22;21578;47.892;9.970;2024-03-23T07:04:49;9.00;96.60
35463;DHT22;21578;47.892;9.970;2024-03-23T07:09:36;9.00;96.60
35463;DHT22;21578;47.892;9.970;2024-03-23T07:14:24;9.00;96.60
35463;DHT22;21578;47.892;9.970;2024-03-23T07:19:11;8.90;96.60
35463;DHT22;21578;47.892;9.970;2024-03-23T07:23:58;8.80;96.60
35463;DHT22;21578;47.892;9.970;2024-03-23T07:28:45;8.80;96.60
35463;DHT22;21578;47.892;9.970;2024-03-23T07:33:33;8.80;96.60
35463;DHT22;21578;47.892;9.970;2024-03-23T07:38:20;8.80;96.60
35463;DHT22;21578;47.892;9.970;2024-03-23T07:43:06;8.80;96.60
35463;DHT22;21578;47.892;9.970;2024-03-23T07:47:53;8.80;96.60
35463;DHT22;21578;47.892;9.970;2024-03-23T07:52:41;8.80;96.60
35463;DHT22;21578;47.892;9.970;2024-03-23T07:57:28;8.80;96.60
35463;DHT22;21578;47.892;9.970;2024-03-23T08:02:15;8.80;96.60
35463;DHT22;21578;47.892;9.970;2024-03-23T08:07:01;8.80;96.60
35463;DHT22;21578;47.892;9.970;2024-03-23T08:11:50;8.90;96.60
35463;DHT22;21578;47.892;9.970;2024-03-23T08:16:37;8.80;96.60
35463;DHT22;21578;47.892;9.970;2024-03-23T08:21:23;8.70;96.60
35463;DHT22;21578;47.892;9.970;2024-03-23T08:26:11;8.40;96.60
35463;DHT22;21578;47.892;9.970;2024-03-23T08:31:03;8.40;96.60
35463;DHT22;21578;47.892;9.970;2024-03-23T08:35:54;8.10;96.60
35463;DHT22;21578;47.892;9.970;2024-03-23T08:40:41;7.80;96.60
35463;DHT22;21578;47.892;9.970;2024-03-23T08:45:28;7.50;96.60
35463;DHT22;21578;47.892;9.970;2024-03-23T08:50:16;7.30;96.60
35463;DHT22;21578;47.892;9.970;2024-03-23T08:55:03;7.20;96.60
35463;DHT22;21578;47.892;9.970;2024-03-23T08:59:50;7.10;96.60
35463;DHT22;21578;47.892;9.970;2024-03-23T09:04:37;7.10;96.60
35463;DHT22;21578;47.892;9.970;2024-03-23T09:09:25;7.10;96.60
35463;DHT22;21578;47.892;9.970;2024-03-23T09:14:12;7.00;96.60
35463;DHT22;21578;47.892;9.970;2024-03-23T09:18:58;7.00;96.60
35463;DHT22;21578;47.892;9.970;2024-03-23T09:23:46;7.00;96.60
35463;DHT22;21578;47.892;9.970;2024-03-23T09:28:34;6.90;96.60
35463;DHT22;21578;47.892;9.970;2024-03-23T09:33:21;6.80;96.60
35463;DHT22;21578;47.892;9.970;2024-03-23T09:38:07;6.70;96.60
35463;DHT22;21578;47.892;9.970;2024-03-23T09:42:54;6.70;96.60
35463;DHT22;21578;47.892;9.970;2024-03-23T09:47:43;6.80;96.60
35463;DHT22;21578;47.892;9.970;2024-03-23T09:52:31;6.90;96.60
35463;DHT22;21578;47.892;9.970;2024-03-23T09:57:18;7.00;96.60
35463;DHT22;21578;47.892;9.970;2024-03-23T10:02:05;6.90;96.60
35463;DHT22;21578;47.892;9.970;2024-03-23T10:06:53;6.80;96.60
35463;DHT22;21578;47.892;9.970;2024-03-23T10:11:40;6.70;96.60
35463;DHT22;21578;47.892;9.970;2024-03-23T10:16:29;6.60;96.60
35463;DHT22;21578;47.892;9.970;2024-03-23T10:21:16;6.40;96.60
35463;DHT22;21578;47.892;9.970;2024-03-23T10:26:15;6.40;96.60
35463;DHT22;21578;47.892;9.970;2024-03-23T10:31:11;6.50;96.60
35463;DHT22;21578;47.892;9.970;2024-03-23T10:35:58;6.60;96.60
35463;DHT22;21578;47.892;9.970;2024-03-23T10:40:45;6.70;96.60
35463;DHT22;21578;47.892;9.970;2024-03-23T10:45:33;7.00;96.60
35463;DHT22;21578;47.892;9.970;2024-03-23T10:50:20;7.10;96.60
35463;DHT22;21578;47.892;9.970;2024-03-23T10:55:07;6.90;96.60
35463;DHT22;21578;47.892;9.970;2024-03-23T10:59:54;7.00;96.60
35463;DHT22;21578;47.892;9.970;2024-03-23T11:04:43;7.20;96.60
35463;DHT22;21578;47.892;9.970;2024-03-23T11:09:39;7.40;96.60
35463;DHT22;21578;47.892;9.970;2024-03-23T11:14:26;7.40;96.60
35463;DHT22;21578;47.892;9.970;2024-03-23T11:19:39;7.20;96.60
35463;DHT22;21578;47.892;9.970;2024-03-23T11:24:28;7.00;96.60
35463;DHT22;21578;47.892;9.970;2024-03-23T11:29:16;6.80;96.60
35463;DHT22;21578;47.892;9.970;2024-03-23T11:34:04;6.80;96.60
35463;DHT22;21578;47.892;9.970;2024-03-23T11:38:51;6.90;96.60
35463;DHT22;21578;47.892;9.970;2024-03-23T11:43:39;7.30;96.60
35463;DHT22;21578;47.892;9.970;2024-03-23T11:48:26;7.50;96.60
35463;DHT22;21578;47.892;9.970;2024-03-23T11:53:14;7.70;96.60
35463;DHT22;21578;47.892;9.970;2024-03-23T11:58:02;7.70;96.00
35463;DHT22;21578;47.892;9.970;2024-03-23T12:02:50;7.70;95.50
35463;DHT22;21578;47.892;9.970;2024-03-23T12:07:37;7.60;94.40
35463;DHT22;21578;47.892;9.970;2024-03-23T12:12:23;7.60;95.80
35463;DHT22;21578;47.892;9.970;2024-03-23T12:17:11;7.70;94.00
35463;DHT22;21578;47.892;9.970;2024-03-23T12:22:00;7.70;95.80
35463;DHT22;21578;47.892;9.970;2024-03-23T12:26:46;7.80;94.70
35463;DHT22;21578;47.892;9.970;2024-03-23T12:31:35;8.00;92.50
35463;DHT22;21578;47.892;9.970;2024-03-23T12:36:22;8.10;89.00
35463;DHT22;21578;47.892;9.970;2024-03-23T12:41:10;8.30;88.70
35463;DHT22;21578;47.892;9.970;2024-03-23T12:45:57;8.70;88.60
35463;DHT22;21578;47.892;9.970;2024-03-23T12:50:44;9.70;91.50
35463;DHT22;21578;47.892;9.970;2024-03-23T12:55:30;10.50;92.50
35463;DHT22;21578;47.892;9.970;2024-03-23T13:00:19;10.70;86.10
35463;DHT22;21578;47.892;9.970;2024-03-23T13:05:06;10.80;88.40
35463;DHT22;21578;47.892;9.970;2024-03-23T13:09:54;10.30;87.00
35463;DHT22;21578;47.892;9.970;2024-03-23T13:14:42;9.90;86.70
35463;DHT22;21578;47.892;9.970;2024-03-23T13:19:30;9.50;90.30
35463;DHT22;21578;47.892;9.970;2024-03-23T13:24:17;8.80;89.00
35463;DHT22;21578;47.892;9.970;2024-03-23T13:29:03;5.90;96.60
35463;DHT22;21578;47.892;9.970;2024-03-23T13:33:50;5.00;96.60
35463;DHT22;21578;47.892;9.970;2024-03-23T13:38:38;4.60;96.60
35463;DHT22;21578;47.892;9.970;2024-03-23T13:43:26;4.60;96.60
35463;DHT22;21578;47.892;9.970;2024-03-23T13:48:13;4.80;96.60
35463;DHT22;21578;47.892;9.970;2024-03-23T13:53:00;5.20;96.60
35463;DHT22;21578;47.892;9.970;2024-03-23T13:57:48;5.60;96.60
35463;DHT22;21578;47.892;9.970;2024-03-23T14:02:36;5.60;96.60
35463;DHT22;21578;47.892;9.970;2024-03-23T14:07:23;6.00;96.60
35463;DHT22;21578;47.892;9.970;2024-03-23T14:12:09;6.30;96.60
35463;DHT22;21578;47.892;9.970;2024-03-23T14:16:57;6.60;96.60
35463;DHT22;21578;47.892;9.970;2024-03-23T14:21:44;6.90;96.60
35463;DHT22;21578;47.892;9.970;2024-03-23T14:26:31;7.00;96.60
35463;DHT22;21578;47.892;9.970;2024-03-23T14:31:18;7.10;96.60
35463;DHT22;21578;47.892;9.970;2024-03-23T14:36:07;7.40;96.60
35463;DHT22;21578;47.892;9.970;2024-03-23T14:40:58;7.40;94.80
35463;DHT22;21578;47.892;9.970;2024-03-23T14:46:06;7.40;93.60
35463;DHT22;21578;47.892;9.970;2024-03-23T14:50:56;7.20;91.60
35463;DHT22;21578;47.892;9.970;2024-03-23T14:55:44;7.30;92.40
35463;DHT22;21578;47.892;9.970;2024-03-23T15:00:34;7.40;91.60
35463;DHT22;21578;47.892;9.970;2024-03-23T15:05:21;7.30;91.90
35463;DHT22;21578;47.892;9.970;2024-03-23T15:10:08;7.10;91.60
35463;DHT22;21578;47.892;9.970;2024-03-23T15:14:57;7.10;93.70
35463;DHT22;21578;47.892;9.970;2024-03-23T15:19:43;7.00;92.20
35463;DHT22;21578;47.892;9.970;2024-03-23T15:24:30;7.00;92.40
35463;DHT22;21578;47.892;9.970;2024-03-23T15:29:17;7.10;91.70
35463;DHT22;21578;47.892;9.970;2024-03-23T15:34:05;7.10;91.30
35463;DHT22;21578;47.892;9.970;2024-03-23T15:38:55;7.30;91.30
35463;DHT22;21578;47.892;9.970;2024-03-23T15:43:43;7.60;87.70
35463;DHT22;21578;47.892;9.970;2024-03-23T15:48:30;7.70;85.70
35463;DHT22;21578;47.892;9.970;2024-03-23T15:53:18;7.60;82.80
35463;DHT22;21578;47.892;9.970;2024-03-23T15:58:05;7.30;84.20
35463;DHT22;21578;47.892;9.970;2024-03-23T16:02:53;7.20;84.50
35463;DHT22;21578;47.892;9.970;2024-03-23T16:07:40;7.30;85.10
35463;DHT22;21578;47.892;9.970;2024-03-23T16:12:28;7.30;84.10
35463;DHT22;21578;47.892;9.970;2024-03-23T16:17:15;7.40;85.30
35463;DHT22;21578;47.892;9.970;2024-03-23T16:22:01;7.40;84.60
35463;DHT22;21578;47.892;9.970;2024-03-23T16:26:48;7.50;83.00
35463;DHT22;21578;47.892;9.970;2024-03-23T16:31:36;7.40;82.40
35463;DHT22;21578;47.892;9.970;2024-03-23T16:36:23;7.30;82.10
35463;DHT22;21578;47.892;9.970;2024-03-23T16:41:12;7.20;81.50
35463;DHT22;21578;47.892;9.970;2024-03-23T16:46:02;7.10;82.60
35463;DHT22;21578;47.892;9.970;2024-03-23T16:50:50;6.80;81.30
35463;DHT22;21578;47.892;9.970;2024-03-23T16:55:38;6.70;82.60
35463;DHT22;21578;47.892;9.970;2024-03-23T17:00:25;6.50;82.10
35463;DHT22;21578;47.892;9.970;2024-03-23T17:05:12;6.50;83.50
35463;DHT22;21578;47.892;9.970;2024-03-23T17:10:00;6.50;83.80
35463;DHT22;21578;47.892;9.970;2024-03-23T17:14:47;6.40;84.30
35463;DHT22;21578;47.892;9.970;2024-03-23T17:19:34;6.30;84.90
35463;DHT22;21578;47.892;9.970;2024-03-23T17:24:21;6.20;84.40
35463;DHT22;21578;47.892;9.970;2024-03-23T17:29:09;6.10;84.60
35463;DHT22;21578;47.892;9.970;2024-03-23T17:33:56;6.10;85.60
35463;DHT22;21578;47.892;9.970;2024-03-23T17:38:42;6.00;86.60
35463;DHT22;21578;47.892;9.970;2024-03-23T17:43:29;5.80;87.20
35463;DHT22;21578;47.892;9.970;2024-03-23T17:48:18;5.70;87.90
35463;DHT22;21578;47.892;9.970;2024-03-23T17:53:06;5.70;87.50
35463;DHT22;21578;47.892;9.970;2024-03-23T17:57:52;5.60;88.00
35463;DHT22;21578;47.892;9.970;2024-03-23T18:02:42;5.40;88.90
35463;DHT22;21578;47.892;9.970;2024-03-23T18:07:30;5.40;88.60
35463;DHT22;21578;47.892;9.970;2024-03-23T18:12:17;5.30;90.10
35463;DHT22;21578;47.892;9.970;2024-03-23T18:17:04;5.30;90.40
35463;DHT22;21578;47.892;9.970;2024-03-23T18:21:50;5.40;90.50
35463;DHT22;21578;47.892;9.970;2024-03-23T18:26:38;5.30;91.40
35463;DHT22;21578;47.892;9.970;2024-03-23T18:31:25;5.20;92.20
35463;DHT22;21578;47.892;9.970;2024-03-23T18:36:12;4.70;96.60
35463;DHT22;21578;47.892;9.970;2024-03-23T18:40:59;4.40;96.60
35463;DHT22;21578;47.892;9.970;2024-03-23T18:45:47;4.40;96.60
35463;DHT22;21578;47.892;9.970;2024-03-23T18:50:34;4.00;96.60
35463;DHT22;21578;47.892;9.970;2024-03-23T18:55:22;3.80;96.60
35463;DHT22;21578;47.892;9.970;2024-03-23T19:00:10;3.60;96.60
35463;DHT22;21578;47.892;9.970;2024-03-23T19:04:58;3.70;96.60
35463;DHT22;21578;47.892;9.970;2024-03-23T19:09:45;3.70;96.60
35463;DHT22;21578;47.892;9.970;2024-03-23T19:14:32;3.30;96.60
35463;DHT22;21578;47.892;9.970;2024-03-23T19:19:18;2.90;96.60
35463;DHT22;21578;47.892;9.970;2024-03-23T19:24:07;2.70;96.60
35463;DHT22;21578;47.892;9.970;2024-03-23T19:28:54;2.80;96.60
35463;DHT22;21578;47.892;9.970;2024-03-23T19:33:40;2.80;96.60
35463;DHT22;21578;47.892;9.970;2024-03-23T19:38:27;2.70;96.60
35463;DHT22;21578;47.892;9.970;2024-03-23T19:43:15;2.70;96.60
35463;DHT22;21578;47.892;9.970;2024-03-23T19:48:02;2.70;96.60
35463;DHT22;21578;47.892;9.970;2024-03-23T19:52:49;2.70;96.60
35463;DHT22;21578;47.892;9.970;2024-03-23T19:57:36;2.80;96.60
35463;DHT22;21578;47.892;9.970;2024-03-23T20:02:24;2.70;96.60
35463;DHT22;21578;47.892;9.970;2024-03-23T20:07:11;2.80;96.60
35463;DHT22;21578;47.892;9.970;2024-03-23T20:11:58;2.80;96.60
35463;DHT22;21578;47.892;9.970;2024-03-23T20:16:46;2.80;96.60
35463;DHT22;21578;47.892;9.970;2024-03-23T20:21:34;2.80;96.60
35463;DHT22;21578;47.892;9.970;2024-03-23T20:26:21;2.90;96.60
35463;DHT22;21578;47.892;9.970;2024-03-23T20:31:08;2.90;96.60
35463;DHT22;21578;47.892;9.970;2024-03-23T20:35:55;2.80;96.60
35463;DHT22;21578;47.892;9.970;2024-03-23T20:40:44;2.80;96.60
35463;DHT22;21578;47.892;9.970;2024-03-23T20:45:31;2.70;96.60
35463;DHT22;21578;47.892;9.970;2024-03-23T20:50:17;2.70;96.60
35463;DHT22;21578;47.892;9.970;2024-03-23T20:55:04;2.90;96.60
35463;DHT22;21578;47.892;9.970;2024-03-23T20:59:55;2.90;96.60
35463;DHT22;21578;47.892;9.970;2024-03-23T21:04:42;2.90;96.60
35463;DHT22;21578;47.892;9.970;2024-03-23T21:09:28;3.00;96.60
35463;DHT22;21578;47.892;9.970;2024-03-23T21:14:15;2.90;96.60
35463;DHT22;21578;47.892;9.970;2024-03-23T21:19:04;2.90;96.60
35463;DHT22;21578;47.892;9.970;2024-03-23T21:23:51;3.00;96.60
35463;DHT22;21578;47.892;9.970;2024-03-23T21:28:38;3.00;96.60
35463;DHT22;21578;47.892;9.970;2024-03-23T21:33:27;2.80;96.60
35463;DHT22;21578;47.892;9.970;2024-03-23T21:38:16;2.90;96.60
35463;DHT22;21578;47.892;9.970;2024-03-23T21:43:03;2.90;96.60
35463;DHT22;21578;47.892;9.970;2024-03-23T21:47:50;2.80;96.60
35463;DHT22;21578;47.892;9.970;2024-03-23T21:52:37;2.70;96.60
35463;DHT22;21578;47.892;9.970;2024-03-23T21:57:25;2.70;96.60
35463;DHT22;21578;47.892;9.970;2024-03-23T22:02:14;2.70;96.60
35463;DHT22;21578;47.892;9.970;2024-03-23T22:07:42;2.80;96.60
35463;DHT22;21578;47.892;9.970;2024-03-23T22:24:08;2.80;96.60
35463;DHT22;21578;47.892;9.970;2024-03-23T22:35:37;2.90;96.60
35463;DHT22;21578;47.892;9.970;2024-03-23T22:40:52;3.00;96.60
35463;DHT22;21578;47.892;9.970;2024-03-23T22:45:51;2.90;96.60
35463;DHT22;21578;47.892;9.970;2024-03-23T22:51:03;2.90;96.60
35463;DHT22;21578;47.892;9.970;2024-03-23T22:56:09;3.00;96.60
35463;DHT22;21578;47.892;9.970;2024-03-23T23:00:55;2.90;96.60
35463;DHT22;21578;47.892;9.970;2024-03-23T23:05:45;3.10;96.60
35463;DHT22;21578;47.892;9.970;2024-03-23T23:10:32;3.00;96.60
35463;DHT22;21578;47.892;9.970;2024-03-23T23:15:20;3.00;96.60
35463;DHT22;21578;47.892;9.970;2024-03-23T23:20:08;3.00;96.60
35463;DHT22;21578;47.892;9.970;2024-03-23T23:24:56;2.90;96.60
35463;DHT22;21578;47.892;9.970;2024-03-23T23:29:42;2.90;96.60
35463;DHT22;21578;47.892;9.970;2024-03-23T23:34:30;2.90;96.60
35463;DHT22;21578;47.892;9.970;2024-03-23T23:39:18;2.90;96.60
35463;DHT22;21578;47.892;9.970;2024-03-23T23:44:04;2.90;96.60
35463;DHT22;21578;47.892;9.970;2024-03-23T23:48:51;2.90;96.60
35463;DHT22;21578;47.892;9.970;2024-03-23T23:53:39;2.90;96.60
35463;DHT22;21578;47.892;9.970;2024-03-23T23:58:29;2.90;96.60
